createdAt,value
2022-12-13T00:01:17.196Z,90.76
2022-12-13T00:06:30.232Z,90.13
2022-12-13T00:11:37.421Z,89.80
2022-12-13T00:16:46.387Z,89.48
2022-12-13T00:21:53.903Z,89.05
2022-12-13T00:27:01.423Z,89.05
2022-12-13T00:32:09.051Z,89.41
2022-12-13T00:45:19.565Z,88.96
2022-12-13T00:50:27.583Z,89.49
2022-12-13T00:55:34.922Z,89.64
2022-12-13T01:00:42.965Z,89.41
2022-12-13T01:11:20.529Z,89.31
2022-12-13T01:16:28.430Z,89.32
2022-12-13T01:21:35.798Z,89.02
2022-12-13T01:26:43.108Z,89.21
2022-12-13T01:31:50.753Z,88.87
2022-12-13T01:36:59.016Z,88.86
2022-12-13T01:45:29.597Z,88.81
2022-12-13T01:50:40.563Z,89.20
2022-12-13T01:55:52.002Z,89.34
2022-12-13T02:01:00.576Z,89.01
2022-12-13T02:06:13.645Z,89.43
2022-12-13T02:11:20.954Z,89.32
2022-12-13T02:16:42.086Z,89.75
2022-12-13T02:22:05.819Z,89.83
2022-12-13T02:27:30.134Z,89.56
2022-12-13T02:32:48.796Z,88.45
2022-12-13T02:38:06.228Z,87.83
2022-12-13T02:43:21.503Z,87.90
2022-12-13T02:48:33.805Z,88.14
2022-12-13T02:53:45.096Z,88.52
2022-12-13T02:58:54.705Z,88.85
2022-12-13T03:04:15.212Z,89.46
2022-12-13T03:09:33.453Z,89.55
2022-12-13T03:14:46.809Z,89.62
2022-12-13T03:19:57.700Z,89.93
2022-12-13T03:25:04.880Z,90.23
2022-12-13T03:30:11.686Z,90.30
2022-12-13T03:35:22.311Z,90.54
2022-12-13T03:40:30.802Z,90.55
2022-12-13T03:45:38.533Z,90.89
2022-12-13T03:50:45.767Z,90.53
2022-12-13T03:55:53.209Z,90.63
2022-12-13T04:01:00.511Z,90.96
2022-12-13T04:06:09.519Z,90.98
2022-12-13T04:11:34.545Z,90.69
2022-12-13T04:16:43.037Z,91.01
2022-12-13T04:21:51.100Z,91.09
2022-12-13T04:26:58.574Z,90.55
2022-12-13T04:32:26.831Z,90.54
2022-12-13T04:43:21.153Z,90.17
2022-12-13T04:48:30.789Z,90.28
2022-12-13T04:53:39.138Z,90.12
2022-12-13T04:58:47.568Z,90.01
2022-12-13T05:03:54.727Z,89.87
2022-12-13T05:09:00.609Z,90.03
2022-12-13T05:14:08.189Z,89.91
2022-12-13T05:19:15.491Z,90.07
2022-12-13T05:24:22.795Z,90.04
2022-12-13T05:29:30.518Z,90.12
2022-12-13T05:34:37.521Z,90.03
2022-12-13T05:45:05.156Z,89.76
2022-12-13T05:50:14.162Z,90.34
2022-12-13T05:55:21.750Z,90.25
2022-12-13T06:00:30.898Z,90.21
2022-12-13T06:05:38.847Z,90.47
2022-12-13T06:10:46.584Z,90.50
2022-12-13T06:16:01.594Z,90.19
2022-12-13T06:21:10.420Z,89.95
2022-12-13T06:26:17.720Z,90.05
2022-12-13T06:31:25.215Z,89.43
2022-12-13T06:36:32.452Z,89.37
2022-12-13T06:41:39.753Z,89.40
2022-12-13T06:46:47.455Z,89.46
2022-12-13T06:51:54.424Z,89.38
2022-12-13T07:00:06.511Z,89.62
2022-12-13T07:05:14.474Z,89.28
2022-12-13T07:10:23.083Z,88.85
2022-12-13T07:15:34.373Z,88.69
2022-12-13T07:20:44.514Z,88.98
2022-12-13T07:25:55.673Z,88.54
2022-12-13T07:34:28.127Z,88.61
2022-12-13T07:44:57.897Z,87.87
2022-12-13T07:50:05.823Z,87.48
2022-12-13T07:55:33.508Z,86.56
2022-12-13T08:00:46.102Z,86.18
2022-12-13T08:06:02.385Z,86.66
2022-12-13T08:11:11.956Z,87.02
2022-12-13T08:16:27.782Z,86.05
2022-12-13T08:22:01.352Z,85.39
2022-12-13T08:27:09.659Z,85.38
2022-12-13T08:32:17.186Z,85.44
2022-12-13T08:37:24.396Z,85.57
2022-12-13T08:42:29.935Z,85.79
2022-12-13T08:47:41.757Z,85.78
2022-12-13T08:52:49.565Z,85.31
2022-12-13T08:57:56.849Z,84.72
2022-12-13T09:03:10.556Z,84.78
2022-12-13T09:08:23.891Z,85.42
2022-12-13T09:13:35.297Z,85.18
2022-12-13T09:18:55.361Z,84.32
2022-12-13T09:24:03.615Z,83.27
2022-12-13T09:29:11.842Z,83.24
2022-12-13T09:34:19.952Z,83.41
2022-12-13T09:39:27.493Z,83.43
2022-12-13T09:44:43.698Z,82.97
2022-12-13T09:49:54.733Z,82.44
2022-12-13T09:55:05.476Z,82.07
2022-12-13T10:00:21.522Z,81.91
2022-12-13T10:05:34.482Z,81.80
2022-12-13T10:10:47.715Z,82.09
2022-12-13T10:16:02.502Z,81.87
2022-12-13T10:21:14.698Z,81.97
2022-12-13T10:26:24.287Z,81.63
2022-12-13T10:31:41.545Z,81.64
2022-12-13T10:36:50.839Z,79.62
2022-12-13T10:42:06.432Z,79.04
2022-12-13T10:47:23.457Z,79.27
2022-12-13T10:52:34.406Z,79.14
2022-12-13T10:57:55.510Z,79.13
2022-12-13T11:03:03.366Z,79.08
2022-12-13T11:08:27.754Z,79.26
2022-12-13T11:13:41.732Z,79.10
2022-12-13T11:18:55.026Z,79.54
2022-12-13T11:24:06.783Z,77.88
2022-12-13T11:29:38.959Z,77.90
2022-12-13T11:35:00.203Z,78.24
2022-12-13T11:40:16.796Z,78.91
2022-12-13T11:45:29.451Z,78.32
2022-12-13T11:50:41.929Z,78.68
2022-12-13T11:55:54.086Z,78.55
2022-12-13T12:01:07.274Z,77.10
2022-12-13T12:06:20.129Z,77.01
2022-12-13T12:11:33.708Z,76.89
2022-12-13T12:16:46.947Z,77.43
2022-12-13T12:22:14.637Z,77.44
2022-12-13T12:27:32.420Z,78.20
2022-12-13T12:32:48.418Z,77.97
2022-12-13T12:38:05.097Z,77.80
2022-12-13T12:43:26.232Z,77.69
2022-12-13T12:57:23.555Z,78.14
2022-12-13T13:02:38.357Z,78.15
2022-12-13T13:07:51.436Z,78.55
2022-12-13T13:13:11.712Z,78.79
2022-12-13T13:18:50.333Z,78.44
2022-12-13T13:24:15.229Z,78.40
2022-12-13T13:29:38.131Z,78.84
2022-12-13T13:34:53.804Z,78.92
2022-12-13T13:40:32.357Z,78.73
2022-12-13T13:45:56.174Z,79.05
2022-12-13T13:52:08.801Z,78.49
2022-12-13T13:58:07.554Z,77.93
2022-12-13T14:03:42.894Z,78.58
2022-12-13T14:09:12.847Z,79.12
2022-12-13T14:15:06.944Z,79.60
2022-12-13T14:20:32.837Z,80.00
2022-12-13T14:26:20.113Z,80.13
2022-12-13T14:31:37.306Z,80.57
2022-12-13T14:36:49.656Z,80.92
2022-12-13T14:42:00.063Z,81.08
2022-12-13T14:47:09.906Z,81.25
2022-12-13T14:52:25.906Z,81.28
2022-12-13T14:57:36.393Z,81.09
2022-12-13T15:02:57.625Z,81.03
2022-12-13T15:08:10.289Z,80.93
2022-12-13T15:13:30.972Z,80.48
2022-12-13T15:18:38.883Z,79.61
2022-12-13T15:23:49.193Z,79.10
2022-12-13T15:29:01.287Z,78.38
2022-12-13T15:34:34.477Z,78.30
2022-12-13T15:39:47.963Z,78.11
2022-12-13T15:44:58.069Z,78.15
2022-12-13T15:50:08.673Z,78.67
2022-12-13T15:55:37.071Z,78.73
2022-12-13T16:00:53.094Z,78.18
2022-12-13T16:06:02.738Z,78.31
2022-12-13T16:11:11.168Z,78.65
2022-12-13T16:16:29.007Z,79.44
2022-12-13T16:21:36.698Z,78.87
2022-12-13T16:26:47.716Z,78.98
2022-12-13T16:32:01.436Z,78.50
2022-12-13T16:37:25.990Z,78.18
2022-12-13T16:42:34.202Z,78.44
2022-12-13T16:47:48.135Z,77.62
2022-12-13T16:52:56.053Z,76.91
2022-12-13T16:58:09.230Z,77.14
2022-12-13T17:03:17.801Z,77.00
2022-12-13T17:08:25.078Z,76.51
2022-12-13T17:13:30.608Z,76.71
2022-12-13T17:18:37.908Z,76.53
2022-12-13T17:23:43.880Z,76.78
2022-12-13T17:28:53.786Z,76.12
2022-12-13T17:34:01.374Z,76.13
2022-12-13T17:39:08.549Z,75.61
2022-12-13T17:44:14.225Z,75.79
2022-12-13T17:49:21.880Z,76.00
2022-12-13T17:54:29.720Z,76.22
2022-12-13T17:59:43.136Z,76.13
2022-12-13T18:04:51.743Z,75.99
2022-12-13T18:09:59.252Z,76.22
2022-12-13T18:15:08.674Z,76.05
2022-12-13T18:20:16.205Z,75.74
2022-12-13T18:25:23.527Z,75.88
2022-12-13T18:30:31.532Z,75.90
2022-12-13T18:35:41.405Z,76.33
2022-12-13T18:40:50.493Z,76.69
2022-12-13T18:45:57.731Z,76.70
2022-12-13T18:51:07.763Z,77.24
2022-12-13T18:56:19.100Z,77.15
2022-12-13T19:01:28.309Z,77.35
2022-12-13T19:06:36.028Z,76.94
2022-12-13T19:11:44.176Z,76.73
2022-12-13T19:16:51.528Z,77.17
2022-12-13T19:21:59.055Z,77.13
2022-12-13T19:27:06.915Z,77.36
2022-12-13T19:32:14.889Z,77.50
2022-12-13T19:37:22.303Z,77.69
2022-12-13T19:42:30.114Z,77.74
2022-12-13T19:47:37.832Z,77.38
2022-12-13T19:52:46.053Z,77.55
2022-12-13T19:57:54.265Z,77.69
2022-12-13T20:03:01.452Z,77.61
2022-12-13T20:08:09.344Z,77.20
2022-12-13T20:13:17.391Z,77.34
2022-12-13T20:18:25.533Z,77.61
2022-12-13T20:23:34.279Z,77.56
2022-12-13T20:28:42.818Z,77.59
2022-12-13T20:33:50.621Z,77.95
2022-12-13T20:44:35.035Z,78.50
2022-12-13T20:49:43.069Z,78.74
2022-12-13T20:54:55.723Z,78.66
2022-12-13T21:00:03.013Z,78.83
2022-12-13T21:05:20.482Z,79.31
2022-12-13T21:10:26.666Z,79.50
2022-12-13T21:15:35.304Z,79.96
2022-12-13T21:20:42.934Z,80.73
2022-12-13T21:25:52.711Z,81.26
2022-12-13T21:31:02.732Z,81.80
2022-12-13T21:36:15.586Z,81.89
2022-12-13T21:45:26.088Z,81.72
2022-12-13T21:50:33.465Z,81.97
2022-12-13T21:55:48.102Z,81.92
2022-12-13T22:00:55.974Z,81.83
2022-12-13T22:06:03.589Z,82.30
2022-12-13T22:11:21.331Z,81.85
2022-12-13T22:16:29.598Z,81.85
2022-12-13T22:21:37.883Z,81.76
2022-12-13T22:26:46.618Z,81.72
2022-12-13T22:31:54.420Z,81.57
2022-12-13T22:37:05.581Z,81.75
2022-12-13T22:42:13.549Z,82.45
2022-12-13T22:47:22.360Z,82.32
2022-12-13T23:02:21.547Z,83.28
2022-12-13T23:07:29.133Z,83.05
2022-12-13T23:12:53.963Z,82.67
2022-12-13T23:18:01.086Z,83.43
2022-12-13T23:23:08.666Z,83.42
2022-12-13T23:28:15.866Z,82.64
2022-12-13T23:33:23.274Z,82.68
2022-12-13T23:38:30.775Z,82.78
2022-12-13T23:43:39.098Z,82.60
2022-12-13T23:48:47.140Z,83.75
2022-12-13T23:53:54.941Z,82.86
2022-12-13T23:59:03.356Z,83.46
